Time;durP1;ratioP1;P1;durP2;ratioP2;P2;SDS_P1;SDS_P2;PMS_P1;PMS_P2;Temp;Humidity;BMP_temperature;BMP_pressure;BME280_temperature;BME280_humidity;BME280_pressure;Samples;Min_cycle;Max_cycle;Signal;HPM_P1;HPM_P2
2022/12/25 00:00:00;;;;;;;35.60;18.83;;;;;;;;;;5072183;28;20040;-67
2022/12/25 00:02:30;;;;;;;29.42;17.38;;;;;;;;;;5072010;28;20040;-66
2022/12/25 00:04:58;;;;;;;31.60;16.42;;;;;;;;;;5071677;28;20048;-66
2022/12/25 00:07:25;;;;;;;28.35;15.15;;;;;;;;;;5071884;28;20040;-66
2022/12/25 00:09:53;;;;;;;24.38;15.48;;;;;;;;;;5070343;28;20399;-66
2022/12/25 00:12:21;;;;;;;24.35;16.25;;;;;;;;;;5071380;28;20084;-66
2022/12/25 00:14:48;;;;;;;26.73;15.57;;;;;;;;;;5072434;28;20090;-66
2022/12/25 00:17:16;;;;;;;24.08;14.45;;;;;;;;;;5075462;28;20040;-66
2022/12/25 00:19:43;;;;;;;26.60;15.57;;;;;;;;;;5075367;28;20125;-66
2022/12/25 00:22:11;;;;;;;29.15;15.63;;;;;;;;;;5075499;28;20425;-66
2022/12/25 00:24:38;;;;;;;26.17;15.38;;;;;;;;;;5075180;28;20037;-66
2022/12/25 00:27:06;;;;;;;23.88;14.75;;;;;;;;;;5075226;28;20044;-66
2022/12/25 00:29:34;;;;;;;26.42;15.35;;;;;;;;;;5074070;28;20051;-66
2022/12/25 00:32:01;;;;;;;27.02;16.10;;;;;;;;;;5075067;28;20504;-66
2022/12/25 00:34:29;;;;;;;23.67;15.38;;;;;;;;;;5075133;28;20508;-66
2022/12/25 00:36:56;;;;;;;26.05;15.40;;;;;;;;;;5057463;28;20094;-66
2022/12/25 00:39:24;;;;;;;27.70;15.60;;;;;;;;;;5074947;28;20509;-66
2022/12/25 00:44:37;;;;;;;23.95;15.18;;;;;;;;;;5074959;28;20398;-66
2022/12/25 00:47:05;;;;;;;24.58;14.90;;;;;;;;;;5075039;28;20095;-66
2022/12/25 00:49:32;;;;;;;24.92;14.32;;;;;;;;;;5074963;28;20041;-66
2022/12/25 00:52:00;;;;;;;23.58;14.73;;;;;;;;;;5075227;28;20036;-66
2022/12/25 00:54:27;;;;;;;24.60;14.85;;;;;;;;;;5074972;28;20037;-66
2022/12/25 00:56:55;;;;;;;24.13;14.88;;;;;;;;;;5075055;28;20098;-66
2022/12/25 00:59:22;;;;;;;26.85;15.15;;;;;;;;;;5074735;28;20047;-66
2022/12/25 01:01:50;;;;;;;22.77;14.48;;;;;;;;;;5075086;28;20037;-66
2022/12/25 01:04:17;;;;;;;25.02;14.60;;;;;;;;;;5074726;28;20055;-66
2022/12/25 01:06:45;;;;;;;23.23;14.90;;;;;;;;;;5074974;28;20037;-66
2022/12/25 01:11:59;;;;;;;31.55;16.63;;;;;;;;;;5074615;28;20041;-66
2022/12/25 01:14:26;;;;;;;26.45;16.98;;;;;;;;;;5073331;28;20049;-66
2022/12/25 01:16:53;;;;;;;26.13;16.10;;;;;;;;;;5074481;28;20411;-66
2022/12/25 01:19:21;;;;;;;29.80;17.75;;;;;;;;;;5074257;28;20041;-66
2022/12/25 01:21:48;;;;;;;25.50;16.20;;;;;;;;;;5073166;28;20090;-66
2022/12/25 01:24:16;;;;;;;28.00;16.55;;;;;;;;;;5074192;28;20044;-66
2022/12/25 01:26:43;;;;;;;25.60;15.15;;;;;;;;;;5073206;28;20668;-66
2022/12/25 01:29:11;;;;;;;24.38;15.00;;;;;;;;;;5074179;28;20052;-66
2022/12/25 01:31:38;;;;;;;26.17;14.98;;;;;;;;;;5073998;28;20076;-66
2022/12/25 01:34:06;;;;;;;30.52;15.85;;;;;;;;;;5074115;28;20037;-67
2022/12/25 01:36:33;;;;;;;25.60;16.35;;;;;;;;;;5074113;28;20119;-66
2022/12/25 01:39:01;;;;;;;24.38;16.33;;;;;;;;;;5073835;28;20045;-66
2022/12/25 01:41:28;;;;;;;24.42;15.23;;;;;;;;;;5073996;28;20043;-66
2022/12/25 01:44:02;;;;;;;28.33;15.85;;;;;;;;;;5073821;28;20074;-66
2022/12/25 01:46:30;;;;;;;24.33;15.52;;;;;;;;;;5072723;28;20041;-66
2022/12/25 01:48:59;;;;;;;25.30;15.70;;;;;;;;;;5056105;28;20099;-66
2022/12/25 01:51:45;;;;;;;26.00;16.08;;;;;;;;;;5073663;28;20040;-66
2022/12/25 01:54:13;;;;;;;;;;;;;;;;;;5074239;28;20036;-66
2022/12/25 01:56:40;;;;;;;26.35;15.05;;;;;;;;;;5073688;28;19924;-66
2022/12/25 01:59:09;;;;;;;28.95;15.85;;;;;;;;;;5072319;28;20055;-65
2022/12/25 02:01:36;;;;;;;27.90;16.30;;;;;;;;;;5073638;28;20040;-66
2022/12/25 02:04:37;;;;;;;24.83;15.90;;;;;;;;;;5073524;28;20123;-66
2022/12/25 02:07:06;;;;;;;24.65;15.82;;;;;;;;;;5073742;28;20517;-65
2022/12/25 02:09:34;;;;;;;26.92;16.95;;;;;;;;;;5073376;28;20397;-66
2022/12/25 02:12:01;;;;;;;29.45;16.98;;;;;;;;;;5072935;28;20048;-66
2022/12/25 02:14:30;;;;;;;28.38;16.92;;;;;;;;;;5073343;28;20106;-66
2022/12/25 02:17:12;;;;;;;28.38;16.75;;;;;;;;;;5073240;28;20040;-66
2022/12/25 02:19:58;;;;;;;31.20;17.23;;;;;;;;;;5073066;28;20041;-66
2022/12/25 02:22:29;;;;;;;29.20;17.10;;;;;;;;;;5071735;28;20437;-66
2022/12/25 02:25:15;;;;;;;27.88;17.23;;;;;;;;;;5073135;28;20482;-66
2022/12/25 02:28:06;;;;;;;27.65;16.98;;;;;;;;;;5072973;28;20521;-66
2022/12/25 02:30:45;;;;;;;28.48;17.38;;;;;;;;;;5072894;28;20478;-66
2022/12/25 02:36:06;;;;;;;30.25;18.15;;;;;;;;;;5072889;28;20040;-66
2022/12/25 02:39:56;;;;;;;29.13;17.70;;;;;;;;;;5072547;28;20508;-66
2022/12/25 02:41:27;;;;;;;33.95;18.70;;;;;;;;;;5072752;28;20037;-66
2022/12/25 03:06:42;;;;;;;37.60;19.80;;;;;;;;;;5072468;28;20127;-66
2022/12/25 03:12:01;;;;;;;32.28;19.33;;;;;;;;;;5072623;28;20007;-66
2022/12/25 03:17:15;;;;;;;35.22;19.65;;;;;;;;;;5072529;28;20040;-66
2022/12/25 03:28:03;;;;;;;35.20;19.42;;;;;;;;;;5072372;28;20120;-66
2022/12/25 03:33:23;;;;;;;35.33;19.30;;;;;;;;;;5072255;28;20036;-66
2022/12/25 03:36:24;;;;;;;35.55;19.80;;;;;;;;;;5072396;28;20397;-66
2022/12/25 04:37:51;;;;;;;39.65;21.98;;;;;;;;;;5073959;28;20552;-65
2022/12/25 04:40:19;;;;;;;39.17;21.80;;;;;;;;;;5075044;28;20102;-66
2022/12/25 04:42:46;;;;;;;39.30;21.48;;;;;;;;;;5075162;28;20544;-65
2022/12/25 04:45:14;;;;;;;39.08;20.92;;;;;;;;;;5075134;28;20498;-65
2022/12/25 04:47:41;;;;;;;39.33;22.55;;;;;;;;;;5074926;28;20557;-65
2022/12/25 04:50:09;;;;;;;40.42;21.45;;;;;;;;;;5074966;28;20086;-65
2022/12/25 04:52:40;;;;;;;40.95;21.45;;;;;;;;;;5074897;28;20041;-65
2022/12/25 04:55:08;;;;;;;38.45;21.60;;;;;;;;;;5074791;28;20040;-65
2022/12/25 04:57:36;;;;;;;38.33;20.52;;;;;;;;;;5074919;28;20075;-65
2022/12/25 05:00:04;;;;;;;38.45;21.35;;;;;;;;;;5074473;28;20463;-65
2022/12/25 05:02:32;;;;;;;38.92;20.35;;;;;;;;;;5074764;28;20051;-66
2022/12/25 05:05:00;;;;;;;37.83;20.95;;;;;;;;;;5074580;28;20436;-66
2022/12/25 05:07:27;;;;;;;39.40;20.15;;;;;;;;;;5074666;28;20045;-66
2022/12/25 05:09:55;;;;;;;34.47;20.15;;;;;;;;;;5073199;28;20136;-66
2022/12/25 05:12:22;;;;;;;33.35;18.55;;;;;;;;;;5074580;28;20049;-66
2022/12/25 05:14:50;;;;;;;34.78;18.85;;;;;;;;;;5074324;28;20102;-66
2022/12/25 05:17:17;;;;;;;35.25;18.90;;;;;;;;;;5074541;28;20068;-66
2022/12/25 05:19:45;;;;;;;35.08;19.60;;;;;;;;;;5074162;28;20120;-66
2022/12/25 05:22:12;;;;;;;32.22;18.80;;;;;;;;;;5074073;28;20044;-66
2022/12/25 05:24:40;;;;;;;34.15;19.27;;;;;;;;;;5074237;28;20090;-66
2022/12/25 05:27:07;;;;;;;34.50;18.05;;;;;;;;;;5074276;28;20105;-66
2022/12/25 05:29:34;;;;;;;31.98;18.42;;;;;;;;;;5074090;28;20036;-66
2022/12/25 05:32:02;;;;;;;30.90;16.95;;;;;;;;;;5074035;28;20052;-66
2022/12/25 05:34:29;;;;;;;34.42;18.40;;;;;;;;;;5074106;28;20042;-66
2022/12/25 05:36:57;;;;;;;31.45;18.20;;;;;;;;;;5073982;28;20044;-66
2022/12/25 05:39:24;;;;;;;33.97;19.00;;;;;;;;;;5073898;28;20037;-66
2022/12/25 05:41:52;;;;;;;28.13;17.27;;;;;;;;;;5073719;28;20071;-66
2022/12/25 05:44:19;;;;;;;31.67;17.17;;;;;;;;;;5074219;28;20442;-66
2022/12/25 05:46:47;;;;;;;32.55;17.50;;;;;;;;;;5073797;28;20111;-66
2022/12/25 05:49:14;;;;;;;30.15;17.70;;;;;;;;;;5074097;28;20090;-65
2022/12/25 05:51:42;;;;;;;32.08;18.00;;;;;;;;;;5073600;28;20051;-66
2022/12/25 05:54:09;;;;;;;29.80;17.58;;;;;;;;;;5073815;28;20040;-66
2022/12/25 05:56:37;;;;;;;31.10;17.30;;;;;;;;;;5073270;28;20125;-66
2022/12/25 05:59:04;;;;;;;29.38;17.83;;;;;;;;;;5073500;28;20101;-66
2022/12/25 06:01:32;;;;;;;33.40;17.42;;;;;;;;;;5073746;28;20055;-66
2022/12/25 06:04:00;;;;;;;28.75;17.33;;;;;;;;;;5075905;28;20033;-68
2022/12/25 06:06:30;;;;;;;30.70;17.13;;;;;;;;;;5060662;28;20411;-68
2022/12/25 06:08:58;;;;;;;32.15;16.73;;;;;;;;;;5052920;28;20044;-68
2022/12/25 06:11:25;;;;;;;26.77;16.42;;;;;;;;;;5053033;28;20068;-67
2022/12/25 06:13:53;;;;;;;31.88;16.05;;;;;;;;;;5052902;28;20041;-67
2022/12/25 06:16:20;;;;;;;25.45;14.77;;;;;;;;;;5053110;28;20094;-67
2022/12/25 06:18:53;;;;;;;26.73;15.70;;;;;;;;;;5053276;28;20071;-67
2022/12/25 06:21:20;;;;;;;29.33;16.13;;;;;;;;;;5053173;28;20473;-67
2022/12/25 06:23:48;;;;;;;29.48;15.73;;;;;;;;;;5056312;28;20086;-67
2022/12/25 06:26:17;;;;;;;25.02;15.45;;;;;;;;;;5053203;28;20053;-67
2022/12/25 06:28:44;;;;;;;28.15;15.05;;;;;;;;;;5053040;28;20064;-68
2022/12/25 06:31:13;;;;;;;25.77;15.07;;;;;;;;;;5052892;28;20498;-67
2022/12/25 06:33:41;;;;;;;26.13;15.20;;;;;;;;;;5051724;28;20037;-67
2022/12/25 06:36:10;;;;;;;25.83;15.65;;;;;;;;;;5059990;28;20498;-67
2022/12/25 06:38:38;;;;;;;27.35;15.70;;;;;;;;;;5072858;28;20493;-67
2022/12/25 06:41:07;;;;;;;23.70;14.20;;;;;;;;;;5073954;28;20078;-67
2022/12/25 06:43:34;;;;;;;26.42;15.35;;;;;;;;;;5072886;28;20441;-67
2022/12/25 06:46:06;;;;;;;25.58;16.10;;;;;;;;;;5072750;28;20093;-67
2022/12/25 06:48:34;;;;;;;26.10;15.27;;;;;;;;;;5072630;28;20437;-67
2022/12/25 06:51:02;;;;;;;27.83;15.13;;;;;;;;;;5072768;28;20051;-67
2022/12/25 06:53:29;;;;;;;25.17;14.82;;;;;;;;;;5072508;28;20500;-67
2022/12/25 06:56:07;;;;;;;26.35;16.13;;;;;;;;;;5072740;28;20401;-67
2022/12/25 06:58:34;;;;;;;23.63;14.93;;;;;;;;;;5065552;28;20037;-67
2022/12/25 07:01:13;;;;;;;23.13;14.85;;;;;;;;;;5052046;28;20041;-66
2022/12/25 07:03:43;;;;;;;24.08;15.07;;;;;;;;;;5052340;28;20041;-67
2022/12/25 07:06:10;;;;;;;24.17;14.07;;;;;;;;;;5051173;28;20037;-67
2022/12/25 07:08:38;;;;;;;25.73;14.43;;;;;;;;;;5051399;28;20037;-67
2022/12/25 07:11:06;;;;;;;24.10;15.13;;;;;;;;;;5048603;28;20033;-66
2022/12/25 07:13:33;;;;;;;23.52;14.60;;;;;;;;;;5050281;28;20048;-65
2022/12/25 07:16:01;;;;;;;23.73;14.07;;;;;;;;;;5050568;28;20033;-67
2022/12/25 07:18:30;;;;;;;27.48;15.27;;;;;;;;;;5049653;28;20620;-66
2022/12/25 07:21:00;;;;;;;22.90;14.13;;;;;;;;;;5052135;28;20041;-67
2022/12/25 07:23:28;;;;;;;23.25;14.10;;;;;;;;;;5054117;28;20052;-67
2022/12/25 07:25:56;;;;;;;20.95;13.57;;;;;;;;;;5058402;28;20075;-66
2022/12/25 07:28:23;;;;;;;24.95;14.65;;;;;;;;;;5063544;28;20461;-67
2022/12/25 07:30:51;;;;;;;22.27;14.25;;;;;;;;;;5061043;28;20479;-67
2022/12/25 07:33:19;;;;;;;23.33;13.60;;;;;;;;;;5065637;28;20058;-64
2022/12/25 07:35:46;;;;;;;24.77;15.00;;;;;;;;;;5066589;28;20061;-63
2022/12/25 07:38:14;;;;;;;21.48;13.88;;;;;;;;;;5069034;28;20044;-65
2022/12/25 07:40:44;;;;;;;24.33;14.32;;;;;;;;;;5059508;28;20048;-64
2022/12/25 07:43:12;;;;;;;24.90;14.07;;;;;;;;;;5058541;28;20118;-66
2022/12/25 07:45:40;;;;;;;21.55;13.85;;;;;;;;;;5056113;28;20045;-65
2022/12/25 07:48:07;;;;;;;21.35;13.40;;;;;;;;;;5058546;28;20060;-66
2022/12/25 07:50:42;;;;;;;;;;;;;;;;;;5040228;28;20436;-65
2022/12/25 07:53:10;;;;;;;21.13;13.25;;;;;;;;;;5058227;28;20423;-64
2022/12/25 07:55:37;;;;;;;19.75;13.18;;;;;;;;;;5063553;28;20098;-65
2022/12/25 07:58:05;;;;;;;22.30;13.52;;;;;;;;;;5055573;28;20041;-65
2022/12/25 08:00:33;;;;;;;23.55;13.98;;;;;;;;;;5070158;28;20047;-65
2022/12/25 08:03:00;;;;;;;23.35;14.00;;;;;;;;;;5055539;28;20052;-65
2022/12/25 08:05:28;;;;;;;24.15;13.38;;;;;;;;;;5058064;28;20499;-65
2022/12/25 08:07:56;;;;;;;20.65;13.95;;;;;;;;;;5055786;28;20045;-65
2022/12/25 08:10:24;;;;;;;21.40;14.18;;;;;;;;;;5047962;28;20045;-65
2022/12/25 08:12:55;;;;;;;19.95;12.70;;;;;;;;;;5035283;28;20121;-65
2022/12/25 08:15:22;;;;;;;22.90;12.88;;;;;;;;;;5039176;28;20045;-65
2022/12/25 08:17:50;;;;;;;19.30;12.30;;;;;;;;;;5054319;28;20041;-65
2022/12/25 08:20:17;;;;;;;20.90;13.10;;;;;;;;;;5040964;28;20041;-65
2022/12/25 08:22:44;;;;;;;29.80;17.50;;;;;;;;;;5054976;28;20433;-66
2022/12/25 08:25:12;;;;;;;23.55;14.20;;;;;;;;;;5038941;28;20435;-66
2022/12/25 08:27:39;;;;;;;23.52;13.40;;;;;;;;;;5044807;28;20050;-66
2022/12/25 08:30:07;;;;;;;19.88;12.45;;;;;;;;;;5049738;28;20040;-66
2022/12/25 08:32:34;;;;;;;20.35;11.85;;;;;;;;;;5055038;28;20459;-66
2022/12/25 08:35:02;;;;;;;20.00;11.75;;;;;;;;;;5054443;28;20033;-66
2022/12/25 08:37:30;;;;;;;17.92;11.57;;;;;;;;;;5043954;28;20044;-66
2022/12/25 08:39:57;;;;;;;18.23;10.65;;;;;;;;;;5033482;28;20045;-66
2022/12/25 08:42:25;;;;;;;17.85;10.32;;;;;;;;;;5034834;28;20438;-66
2022/12/25 08:44:52;;;;;;;18.70;11.02;;;;;;;;;;5034841;28;20034;-66
2022/12/25 08:47:20;;;;;;;19.25;12.05;;;;;;;;;;5050838;28;20040;-66
2022/12/25 08:49:47;;;;;;;17.33;10.98;;;;;;;;;;5054732;28;20124;-66
2022/12/25 08:52:15;;;;;;;19.63;12.57;;;;;;;;;;5054483;28;20047;-66
2022/12/25 08:54:42;;;;;;;19.83;11.25;;;;;;;;;;5054631;28;20479;-66
2022/12/25 08:57:10;;;;;;;21.17;12.25;;;;;;;;;;5054736;28;20048;-66
2022/12/25 08:59:37;;;;;;;19.23;12.98;;;;;;;;;;5054518;28;20453;-66
2022/12/25 09:02:05;;;;;;;19.38;11.70;;;;;;;;;;5054513;28;20040;-66
2022/12/25 09:04:32;;;;;;;17.02;11.50;;;;;;;;;;5054473;28;20041;-66
2022/12/25 09:07:01;;;;;;;17.17;10.88;;;;;;;;;;5054397;28;20091;-66
2022/12/25 09:09:29;;;;;;;19.25;10.95;;;;;;;;;;5054556;28;20041;-66
2022/12/25 09:11:56;;;;;;;16.23;10.93;;;;;;;;;;5054087;28;20036;-66
2022/12/25 09:14:23;;;;;;;16.73;11.15;;;;;;;;;;5045137;28;20511;-66
2022/12/25 09:16:51;;;;;;;15.32;10.20;;;;;;;;;;5036994;28;20103;-66
2022/12/25 09:19:20;;;;;;;26.10;15.60;;;;;;;;;;5034317;28;20053;-66
2022/12/25 09:21:48;;;;;;;23.58;13.23;;;;;;;;;;5053216;28;20122;-66
2022/12/25 09:24:15;;;;;;;40.42;23.73;;;;;;;;;;5054193;28;20489;-66
2022/12/25 09:26:43;;;;;;;23.10;14.68;;;;;;;;;;5050411;28;20088;-66
2022/12/25 09:29:10;;;;;;;25.77;12.88;;;;;;;;;;5034099;28;20040;-66
2022/12/25 09:31:38;;;;;;;14.80;9.93;;;;;;;;;;5035567;28;20057;-65
2022/12/25 09:34:06;;;;;;;21.63;13.93;;;;;;;;;;5048467;28;20140;-66
2022/12/25 09:36:34;;;;;;;18.42;12.88;;;;;;;;;;5053861;28;20560;-66
2022/12/25 09:39:01;;;;;;;17.83;10.63;;;;;;;;;;5053856;28;20475;-66
2022/12/25 09:41:31;;;;;;;18.73;12.00;;;;;;;;;;5053824;28;20045;-66
2022/12/25 09:44:01;;;;;;;17.88;11.75;;;;;;;;;;5050059;28;20053;-66
2022/12/25 09:46:33;;;;;;;17.75;11.82;;;;;;;;;;5033815;28;20037;-66
2022/12/25 09:49:26;;;;;;;18.52;12.85;;;;;;;;;;5046098;28;20056;-64
2022/12/25 09:51:56;;;;;;;18.98;11.43;;;;;;;;;;5033405;28;20041;-68
2022/12/25 09:54:47;;;;;;;17.48;11.38;;;;;;;;;;5033501;28;20064;-65
2022/12/25 09:57:15;;;;;;;16.83;11.02;;;;;;;;;;5032270;28;20041;-65
2022/12/25 09:59:43;;;;;;;19.92;13.73;;;;;;;;;;5044509;28;20041;-66
2022/12/25 10:02:23;;;;;;;19.30;12.20;;;;;;;;;;5046851;28;20045;-66
2022/12/25 10:04:58;;;;;;;29.67;16.60;;;;;;;;;;5047860;28;20041;-65
2022/12/25 10:07:25;;;;;;;;;;;;;;;;;;5041945;28;20036;-65
2022/12/25 10:10:02;;;;;;;16.83;11.00;;;;;;;;;;5034601;28;19960;-65
2022/12/25 10:12:35;;;;;;;18.65;10.98;;;;;;;;;;5033146;28;20037;-65
2022/12/25 10:15:07;;;;;;;17.65;11.25;;;;;;;;;;5032987;28;20120;-65
2022/12/25 10:17:49;;;;;;;14.80;10.85;;;;;;;;;;5033056;28;20624;-66
2022/12/25 10:20:16;;;;;;;16.98;10.60;;;;;;;;;;5039212;28;20041;-65
2022/12/25 10:22:46;;;;;;;16.65;10.98;;;;;;;;;;5038159;28;20553;-65
2022/12/25 10:25:32;;;;;;;15.77;9.82;;;;;;;;;;5035584;28;20045;-65
2022/12/25 10:28:02;;;;;;;22.10;12.85;;;;;;;;;;5051691;28;20041;-65
2022/12/25 10:30:31;;;;;;;20.23;11.18;;;;;;;;;;5051999;28;20119;-66
2022/12/25 10:32:58;;;;;;;21.73;12.43;;;;;;;;;;5052484;28;20095;-65
2022/12/25 10:35:27;;;;;;;15.25;10.57;;;;;;;;;;5052666;28;20044;-65
2022/12/25 10:38:00;;;;;;;17.65;10.95;;;;;;;;;;5052653;28;20052;-64
2022/12/25 10:40:38;;;;;;;18.55;10.68;;;;;;;;;;5052541;28;20045;-66
2022/12/25 10:43:13;;;;;;;19.52;11.27;;;;;;;;;;5052339;28;20052;-66
2022/12/25 10:45:47;;;;;;;20.33;14.18;;;;;;;;;;5033759;28;20037;-65
2022/12/25 10:48:23;;;;;;;36.00;20.55;;;;;;;;;;5032337;28;20043;-65
2022/12/25 10:50:51;;;;;;;21.98;13.35;;;;;;;;;;5041537;28;20040;-64
2022/12/25 10:53:23;;;;;;;25.45;14.50;;;;;;;;;;5039230;28;20048;-65
2022/12/25 10:56:04;;;;;;;19.30;11.90;;;;;;;;;;5038841;28;20048;-65
2022/12/25 10:58:32;;;;;;;20.60;12.75;;;;;;;;;;5032144;28;20573;-65
2022/12/25 11:01:02;;;;;;;23.38;13.82;;;;;;;;;;5032158;28;20041;-66
2022/12/25 11:03:31;;;;;;;14.38;9.73;;;;;;;;;;5034733;28;20052;-67
2022/12/25 11:05:59;;;;;;;23.05;12.55;;;;;;;;;;5050909;28;20087;-66
2022/12/25 11:08:28;;;;;;;26.63;16.40;;;;;;;;;;5047654;28;20042;-66
2022/12/25 11:11:04;;;;;;;21.88;13.90;;;;;;;;;;5052495;28;20045;-65
2022/12/25 11:13:34;;;;;;;19.98;12.93;;;;;;;;;;5047099;28;20132;-67
2022/12/25 11:16:02;;;;;;;20.95;12.30;;;;;;;;;;5046598;28;20067;-67
2022/12/25 11:18:33;;;;;;;21.63;13.60;;;;;;;;;;5052047;28;20072;-66
2022/12/25 11:21:00;;;;;;;21.48;13.18;;;;;;;;;;5041353;28;20432;-67
2022/12/25 11:23:29;;;;;;;42.88;27.05;;;;;;;;;;5035595;28;20045;-67
2022/12/25 11:26:16;;;;;;;18.08;12.60;;;;;;;;;;5050105;28;20083;-68
2022/12/25 11:28:44;;;;;;;15.95;10.35;;;;;;;;;;5035828;28;20041;-67
2022/12/25 11:31:19;;;;;;;16.80;11.70;;;;;;;;;;5031768;28;20052;-67
2022/12/25 11:34:07;;;;;;;16.90;10.32;;;;;;;;;;5049335;28;20049;-67
2022/12/25 11:36:43;;;;;;;19.77;11.90;;;;;;;;;;5045600;28;20079;-72
2022/12/25 11:39:30;;;;;;;17.23;10.02;;;;;;;;;;5044078;28;20043;-72
2022/12/25 11:42:08;;;;;;;18.85;13.25;;;;;;;;;;5047823;28;20046;-72
2022/12/25 11:44:35;;;;;;;13.95;9.60;;;;;;;;;;5049697;28;20490;-72
2022/12/25 11:47:11;;;;;;;16.83;11.20;;;;;;;;;;5051582;28;20119;-72
2022/12/25 11:49:44;;;;;;;17.65;10.02;;;;;;;;;;5057645;28;20044;-72
2022/12/25 11:52:17;;;;;;;13.77;9.07;;;;;;;;;;5059419;28;20035;-71
2022/12/25 11:54:56;;;;;;;11.32;7.70;;;;;;;;;;5048110;28;20045;-71
2022/12/25 11:57:25;;;;;;;12.80;8.18;;;;;;;;;;5043028;28;20535;-71
2022/12/25 11:59:56;;;;;;;14.68;8.68;;;;;;;;;;5030567;28;20034;-72
2022/12/25 12:02:28;;;;;;;13.80;8.95;;;;;;;;;;5032618;28;20516;-71
2022/12/25 12:05:17;;;;;;;16.52;10.07;;;;;;;;;;5041420;28;20033;-71
2022/12/25 12:07:59;;;;;;;13.30;7.97;;;;;;;;;;5050183;28;20048;-71
2022/12/25 12:10:37;;;;;;;11.75;7.45;;;;;;;;;;5034739;28;20029;-71
2022/12/25 12:13:13;;;;;;;11.43;7.20;;;;;;;;;;5042889;28;20037;-72
2022/12/25 12:15:42;;;;;;;13.63;7.85;;;;;;;;;;5050182;28;20052;-71
2022/12/25 12:18:21;;;;;;;12.55;8.10;;;;;;;;;;5037872;28;20040;-73
2022/12/25 12:20:59;;;;;;;9.52;6.90;;;;;;;;;;5050586;28;20038;-72
2022/12/25 12:23:28;;;;;;;13.98;9.10;;;;;;;;;;5051629;28;20060;-73
2022/12/25 12:25:55;;;;;;;17.75;11.23;;;;;;;;;;5050210;28;20094;-71
2022/12/25 12:28:25;;;;;;;22.33;12.23;;;;;;;;;;5041780;28;20048;-71
2022/12/25 12:31:03;;;;;;;27.27;17.52;;;;;;;;;;5045370;28;20446;-71
2022/12/25 12:33:51;;;;;;;36.15;23.90;;;;;;;;;;5043186;28;20124;-70
2022/12/25 12:36:21;;;;;;;15.50;8.75;;;;;;;;;;5058033;28;20045;-70
2022/12/25 12:39:01;;;;;;;26.40;15.80;;;;;;;;;;5059990;28;20047;-71
2022/12/25 12:41:58;;;;;;;26.15;17.85;;;;;;;;;;5074309;28;20479;-70
2022/12/25 12:44:30;;;;;;;30.38;18.70;;;;;;;;;;5070525;28;20508;-71
2022/12/25 12:46:57;;;;;;;18.92;12.38;;;;;;;;;;5075347;28;20037;-71
2022/12/25 12:49:31;;;;;;;20.88;14.02;;;;;;;;;;5075529;28;20457;-71
2022/12/25 12:52:17;;;;;;;27.23;15.38;;;;;;;;;;5074851;28;20189;-71
2022/12/25 12:55:00;;;;;;;50.33;30.15;;;;;;;;;;5075069;28;20428;-71
2022/12/25 12:57:31;;;;;;;26.65;15.25;;;;;;;;;;5075330;28;20028;-71
2022/12/25 13:00:00;;;;;;;25.48;15.82;;;;;;;;;;5074794;28;20047;-71
2022/12/25 13:02:43;;;;;;;14.55;9.18;;;;;;;;;;5074716;28;20125;-71
2022/12/25 13:05:19;;;;;;;54.13;34.13;;;;;;;;;;5074721;28;20098;-71
2022/12/25 13:08:02;;;;;;;18.70;11.75;;;;;;;;;;5074638;28;20064;-71
2022/12/25 13:10:32;;;;;;;33.95;19.92;;;;;;;;;;5073283;28;20486;-71
2022/12/25 13:13:01;;;;;;;36.97;20.33;;;;;;;;;;5074773;28;20055;-71
2022/12/25 13:15:31;;;;;;;19.48;11.75;;;;;;;;;;5074471;28;20080;-71
2022/12/25 13:18:01;;;;;;;20.90;12.20;;;;;;;;;;5074535;28;20033;-71
2022/12/25 13:20:48;;;;;;;31.27;17.15;;;;;;;;;;5074500;28;20051;-71
2022/12/25 13:23:24;;;;;;;49.60;28.10;;;;;;;;;;5072983;28;20037;-72
2022/12/25 13:25:52;;;;;;;26.85;16.70;;;;;;;;;;5073112;28;20068;-71
2022/12/25 13:28:24;;;;;;;101.35;61.47;;;;;;;;;;5074306;28;20041;-71
2022/12/25 13:30:51;;;;;;;56.58;33.58;;;;;;;;;;5072674;28;20479;-71
2022/12/25 13:33:19;;;;;;;21.77;13.40;;;;;;;;;;5074212;28;20505;-71
2022/12/25 13:35:47;;;;;;;15.38;10.00;;;;;;;;;;5074325;28;20127;-71
2022/12/25 13:38:16;;;;;;;20.58;12.48;;;;;;;;;;5074537;28;20044;-71
2022/12/25 13:43:38;;;;;;;139.52;79.60;;;;;;;;;;5074316;28;20095;-71
2022/12/25 13:46:06;;;;;;;85.47;50.28;;;;;;;;;;5074274;28;20043;-70
2022/12/25 13:48:34;;;;;;;35.65;20.08;;;;;;;;;;5072795;28;20041;-71
2022/12/25 13:51:01;;;;;;;24.30;13.82;;;;;;;;;;5074055;28;20082;-71
2022/12/25 13:53:29;;;;;;;23.77;14.43;;;;;;;;;;5073803;28;20037;-71
2022/12/25 13:55:58;;;;;;;20.05;12.07;;;;;;;;;;5074122;28;20051;-71
2022/12/25 13:58:27;;;;;;;17.60;10.85;;;;;;;;;;5073834;28;20045;-71
2022/12/25 14:00:58;;;;;;;18.63;11.35;;;;;;;;;;5073824;28;20041;-71
2022/12/25 14:03:35;;;;;;;30.77;17.17;;;;;;;;;;5073646;28;20090;-71
2022/12/25 14:06:07;;;;;;;20.17;13.35;;;;;;;;;;5073743;28;20041;-71
2022/12/25 14:08:35;;;;;;;29.48;17.95;;;;;;;;;;5073927;28;20115;-71
2022/12/25 14:11:04;;;;;;;32.85;19.58;;;;;;;;;;5072304;28;20033;-71
2022/12/25 14:13:35;;;;;;;35.75;20.65;;;;;;;;;;5073764;28;20051;-71
2022/12/25 14:16:03;;;;;;;22.75;13.25;;;;;;;;;;5073345;28;20068;-71
2022/12/25 14:18:30;;;;;;;44.35;23.95;;;;;;;;;;5073351;28;20560;-70
2022/12/25 14:21:05;;;;;;;20.80;12.40;;;;;;;;;;5073520;28;20404;-70
2022/12/25 14:23:40;;;;;;;18.23;12.07;;;;;;;;;;5073229;28;20048;-71
2022/12/25 14:26:14;;;;;;;22.73;15.73;;;;;;;;;;5073134;28;20047;-71
2022/12/25 14:28:42;;;;;;;28.33;19.20;;;;;;;;;;5073123;28;20128;-70
2022/12/25 14:31:11;;;;;;;30.85;20.80;;;;;;;;;;5072932;28;20102;-70
2022/12/25 14:33:39;;;;;;;30.17;19.98;;;;;;;;;;5072550;28;20474;-70
2022/12/25 14:36:07;;;;;;;31.20;20.52;;;;;;;;;;5073005;28;20045;-71
2022/12/25 14:38:34;;;;;;;70.55;39.45;;;;;;;;;;5073030;28;20111;-70
2022/12/25 14:41:03;;;;;;;44.63;27.77;;;;;;;;;;5072936;28;20505;-71
2022/12/25 14:43:31;;;;;;;34.83;24.15;;;;;;;;;;5072928;28;20037;-71
2022/12/25 14:46:00;;;;;;;48.38;32.38;;;;;;;;;;5072929;28;20047;-71
2022/12/25 14:48:31;;;;;;;35.85;24.73;;;;;;;;;;5073053;28;20105;-71
2022/12/25 14:51:14;;;;;;;29.90;18.45;;;;;;;;;;5071603;28;20037;-70
2022/12/25 14:53:49;;;;;;;26.67;16.92;;;;;;;;;;5072623;28;20036;-71
2022/12/25 14:56:17;;;;;;;;;;;;;;;;;;5073159;28;20444;-71
2022/12/25 14:58:48;;;;;;;38.85;26.92;;;;;;;;;;5072720;28;19927;-71
2022/12/25 15:01:33;;;;;;;35.92;24.02;;;;;;;;;;5072638;28;20090;-71
2022/12/25 15:04:05;;;;;;;35.22;22.30;;;;;;;;;;5072761;28;20036;-71
2022/12/25 15:06:33;;;;;;;29.67;19.75;;;;;;;;;;5072691;28;20116;-71
2022/12/25 15:09:01;;;;;;;26.63;17.77;;;;;;;;;;5072666;28;20375;-71
2022/12/25 15:11:29;;;;;;;30.45;20.00;;;;;;;;;;5072574;28;20033;-71
2022/12/25 15:13:57;;;;;;;29.20;20.75;;;;;;;;;;5072883;28;20048;-71
2022/12/25 15:16:26;;;;;;;28.05;17.95;;;;;;;;;;5071277;28;20161;-71
2022/12/25 15:18:54;;;;;;;22.27;15.52;;;;;;;;;;5072597;28;20052;-71
2022/12/25 15:21:25;;;;;;;23.90;15.05;;;;;;;;;;5072759;28;20119;-71
2022/12/25 15:23:56;;;;;;;23.10;15.90;;;;;;;;;;5072366;28;20321;-70
2022/12/25 15:26:24;;;;;;;23.38;16.00;;;;;;;;;;5071247;28;20049;-70
2022/12/25 15:28:51;;;;;;;25.42;15.70;;;;;;;;;;5072382;28;20044;-70
2022/12/25 15:31:21;;;;;;;23.33;15.93;;;;;;;;;;5072153;28;20418;-70
2022/12/25 15:33:48;;;;;;;23.80;14.65;;;;;;;;;;5072609;28;20115;-71
2022/12/25 15:36:16;;;;;;;21.52;13.95;;;;;;;;;;5072415;28;20044;-72
2022/12/25 15:38:44;;;;;;;22.40;13.63;;;;;;;;;;5072219;28;20041;-71
2022/12/25 15:42:09;;;;;;;21.02;13.23;;;;;;;;;;5072243;28;20047;-71
2022/12/25 15:44:00;;;;;;;18.45;12.90;;;;;;;;;;5072108;28;20067;-71
2022/12/25 15:46:28;;;;;;;19.83;12.88;;;;;;;;;;5074329;28;20424;-72
2022/12/25 15:48:55;;;;;;;21.20;12.55;;;;;;;;;;5061171;28;20045;-71
2022/12/25 15:51:23;;;;;;;20.40;12.45;;;;;;;;;;5040346;28;20034;-70
2022/12/25 15:53:51;;;;;;;17.25;11.73;;;;;;;;;;5051267;28;20106;-71
2022/12/25 15:56:18;;;;;;;20.38;12.35;;;;;;;;;;5055187;28;20095;-71
2022/12/25 15:58:46;;;;;;;19.88;12.45;;;;;;;;;;5047675;28;20049;-72
2022/12/25 16:01:14;;;;;;;19.80;12.30;;;;;;;;;;5041187;28;20049;-72
2022/12/25 16:03:42;;;;;;;19.27;12.90;;;;;;;;;;5051711;28;20043;-72
2022/12/25 16:06:11;;;;;;;21.65;12.35;;;;;;;;;;5051224;28;20554;-73
2022/12/25 16:08:39;;;;;;;21.65;12.70;;;;;;;;;;5052403;28;20459;-72
2022/12/25 16:11:07;;;;;;;21.63;12.25;;;;;;;;;;5054891;28;20040;-72
2022/12/25 16:13:34;;;;;;;19.58;12.68;;;;;;;;;;5038264;28;20136;-73
2022/12/25 16:16:02;;;;;;;17.83;11.38;;;;;;;;;;5035558;28;20067;-74
2022/12/25 16:18:30;;;;;;;18.42;12.63;;;;;;;;;;5050560;28;20049;-73
2022/12/25 16:20:58;;;;;;;20.92;13.02;;;;;;;;;;5054391;28;20048;-73
2022/12/25 16:23:26;;;;;;;21.90;13.63;;;;;;;;;;5057087;28;20041;-72
2022/12/25 16:25:53;;;;;;;22.00;12.90;;;;;;;;;;5055482;28;20037;-71